sensor_id;sensor_type;location;lat;lon;timestamp;P1;durP1;ratioP1;P2;durP2;ratioP2
64282;SDS011;50497;50.720;-2.084;2023-08-30T00:00:36;4.55;;;1.75;;
64282;SDS011;50497;50.720;-2.084;2023-08-30T00:03:02;4.18;;;1.83;;
64282;SDS011;50497;50.720;-2.084;2023-08-30T00:05:27;4.22;;;1.90;;
64282;SDS011;50497;50.720;-2.084;2023-08-30T00:07:53;4.00;;;1.83;;
64282;SDS011;50497;50.720;-2.084;2023-08-30T00:10:19;5.45;;;1.85;;
64282;SDS011;50497;50.720;-2.084;2023-08-30T00:12:44;5.18;;;2.05;;
64282;SDS011;50497;50.720;-2.084;2023-08-30T00:15:09;5.78;;;2.00;;
64282;SDS011;50497;50.720;-2.084;2023-08-30T00:17:35;5.03;;;2.00;;
64282;SDS011;50497;50.720;-2.084;2023-08-30T00:20:00;4.82;;;2.13;;
64282;SDS011;50497;50.720;-2.084;2023-08-30T00:22:26;5.75;;;2.00;;
64282;SDS011;50497;50.720;-2.084;2023-08-30T00:27:18;5.90;;;2.35;;
64282;SDS011;50497;50.720;-2.084;2023-08-30T00:29:45;6.50;;;2.00;;
64282;SDS011;50497;50.720;-2.084;2023-08-30T00:32:10;7.28;;;2.30;;
64282;SDS011;50497;50.720;-2.084;2023-08-30T00:34:36;5.40;;;2.20;;
64282;SDS011;50497;50.720;-2.084;2023-08-30T00:37:02;5.63;;;2.22;;
64282;SDS011;50497;50.720;-2.084;2023-08-30T00:39:27;5.50;;;2.10;;
64282;SDS011;50497;50.720;-2.084;2023-08-30T00:41:53;7.22;;;2.30;;
64282;SDS011;50497;50.720;-2.084;2023-08-30T00:44:18;4.68;;;2.08;;
64282;SDS011;50497;50.720;-2.084;2023-08-30T00:46:43;5.70;;;2.45;;
64282;SDS011;50497;50.720;-2.084;2023-08-30T00:49:09;6.55;;;2.25;;
64282;SDS011;50497;50.720;-2.084;2023-08-30T00:51:35;5.82;;;2.40;;
64282;SDS011;50497;50.720;-2.084;2023-08-30T00:54:01;5.45;;;2.17;;
64282;SDS011;50497;50.720;-2.084;2023-08-30T00:56:27;5.50;;;2.20;;
64282;SDS011;50497;50.720;-2.084;2023-08-30T00:58:53;6.10;;;2.20;;
64282;SDS011;50497;50.720;-2.084;2023-08-30T01:01:19;4.93;;;2.20;;
64282;SDS011;50497;50.720;-2.084;2023-08-30T01:03:44;5.88;;;2.33;;
64282;SDS011;50497;50.720;-2.084;2023-08-30T01:06:10;7.10;;;2.40;;
64282;SDS011;50497;50.720;-2.084;2023-08-30T01:08:36;5.65;;;2.20;;
64282;SDS011;50497;50.720;-2.084;2023-08-30T01:11:07;6.65;;;2.35;;
64282;SDS011;50497;50.720;-2.084;2023-08-30T01:13:45;6.43;;;2.38;;
64282;SDS011;50497;50.720;-2.084;2023-08-30T01:16:18;4.85;;;2.28;;
64282;SDS011;50497;50.720;-2.084;2023-08-30T01:18:45;5.60;;;2.30;;
64282;SDS011;50497;50.720;-2.084;2023-08-30T01:21:12;8.05;;;2.50;;
64282;SDS011;50497;50.720;-2.084;2023-08-30T01:23:53;4.80;;;2.00;;
64282;SDS011;50497;50.720;-2.084;2023-08-30T01:26:25;8.68;;;2.22;;
64282;SDS011;50497;50.720;-2.084;2023-08-30T01:29:01;5.38;;;2.10;;
64282;SDS011;50497;50.720;-2.084;2023-08-30T01:31:29;5.78;;;3.00;;
64282;SDS011;50497;50.720;-2.084;2023-08-30T01:33:58;6.60;;;2.00;;
64282;SDS011;50497;50.720;-2.084;2023-08-30T01:36:25;5.95;;;2.17;;
64282;SDS011;50497;50.720;-2.084;2023-08-30T01:38:51;7.03;;;2.30;;
64282;SDS011;50497;50.720;-2.084;2023-08-30T01:41:18;7.90;;;2.33;;
64282;SDS011;50497;50.720;-2.084;2023-08-30T01:43:44;6.03;;;2.30;;
64282;SDS011;50497;50.720;-2.084;2023-08-30T01:46:12;5.22;;;2.20;;
64282;SDS011;50497;50.720;-2.084;2023-08-30T01:48:38;5.65;;;2.03;;
64282;SDS011;50497;50.720;-2.084;2023-08-30T01:51:04;5.57;;;2.10;;
64282;SDS011;50497;50.720;-2.084;2023-08-30T01:53:30;6.57;;;2.88;;
64282;SDS011;50497;50.720;-2.084;2023-08-30T01:58:22;4.80;;;2.00;;
64282;SDS011;50497;50.720;-2.084;2023-08-30T02:00:47;5.75;;;2.13;;
64282;SDS011;50497;50.720;-2.084;2023-08-30T02:03:13;5.78;;;2.40;;
64282;SDS011;50497;50.720;-2.084;2023-08-30T02:06:00;4.80;;;2.25;;
64282;SDS011;50497;50.720;-2.084;2023-08-30T02:08:52;5.00;;;2.30;;
64282;SDS011;50497;50.720;-2.084;2023-08-30T02:11:26;7.50;;;2.85;;
64282;SDS011;50497;50.720;-2.084;2023-08-30T02:13:53;7.63;;;2.30;;
64282;SDS011;50497;50.720;-2.084;2023-08-30T02:16:22;8.32;;;2.63;;
64282;SDS011;50497;50.720;-2.084;2023-08-30T02:18:48;7.80;;;2.72;;
64282;SDS011;50497;50.720;-2.084;2023-08-30T02:21:15;5.82;;;2.75;;
64282;SDS011;50497;50.720;-2.084;2023-08-30T02:23:40;7.95;;;2.67;;
64282;SDS011;50497;50.720;-2.084;2023-08-30T02:26:05;7.13;;;2.90;;
64282;SDS011;50497;50.720;-2.084;2023-08-30T02:28:31;8.65;;;2.45;;
64282;SDS011;50497;50.720;-2.084;2023-08-30T02:30:56;8.57;;;3.17;;
64282;SDS011;50497;50.720;-2.084;2023-08-30T02:33:21;7.45;;;2.42;;
64282;SDS011;50497;50.720;-2.084;2023-08-30T02:35:47;7.05;;;2.80;;
64282;SDS011;50497;50.720;-2.084;2023-08-30T02:38:12;7.63;;;2.67;;
64282;SDS011;50497;50.720;-2.084;2023-08-30T02:40:38;7.05;;;2.80;;
64282;SDS011;50497;50.720;-2.084;2023-08-30T02:43:03;7.55;;;2.75;;
64282;SDS011;50497;50.720;-2.084;2023-08-30T02:45:28;7.38;;;2.63;;
64282;SDS011;50497;50.720;-2.084;2023-08-30T02:47:56;7.78;;;2.75;;
64282;SDS011;50497;50.720;-2.084;2023-08-30T02:50:22;7.88;;;2.70;;
64282;SDS011;50497;50.720;-2.084;2023-08-30T02:52:48;9.40;;;3.33;;
64282;SDS011;50497;50.720;-2.084;2023-08-30T02:55:13;7.70;;;3.00;;
64282;SDS011;50497;50.720;-2.084;2023-08-30T02:57:39;8.57;;;2.72;;
64282;SDS011;50497;50.720;-2.084;2023-08-30T03:00:04;7.78;;;3.10;;
64282;SDS011;50497;50.720;-2.084;2023-08-30T03:02:31;9.45;;;3.63;;
64282;SDS011;50497;50.720;-2.084;2023-08-30T03:04:58;7.97;;;3.10;;
64282;SDS011;50497;50.720;-2.084;2023-08-30T03:07:24;10.27;;;3.65;;
64282;SDS011;50497;50.720;-2.084;2023-08-30T03:09:52;10.32;;;3.78;;
64282;SDS011;50497;50.720;-2.084;2023-08-30T03:12:18;8.82;;;3.08;;
64282;SDS011;50497;50.720;-2.084;2023-08-30T03:14:43;8.25;;;3.25;;
64282;SDS011;50497;50.720;-2.084;2023-08-30T03:17:08;7.80;;;3.88;;
64282;SDS011;50497;50.720;-2.084;2023-08-30T03:19:34;8.18;;;3.20;;
64282;SDS011;50497;50.720;-2.084;2023-08-30T03:21:59;8.27;;;3.38;;
64282;SDS011;50497;50.720;-2.084;2023-08-30T03:24:25;9.35;;;3.33;;
64282;SDS011;50497;50.720;-2.084;2023-08-30T03:26:51;8.55;;;3.90;;
64282;SDS011;50497;50.720;-2.084;2023-08-30T03:29:16;8.77;;;3.22;;
64282;SDS011;50497;50.720;-2.084;2023-08-30T03:31:42;7.80;;;2.95;;
64282;SDS011;50497;50.720;-2.084;2023-08-30T03:34:08;7.47;;;2.97;;
64282;SDS011;50497;50.720;-2.084;2023-08-30T03:36:34;7.50;;;2.92;;
64282;SDS011;50497;50.720;-2.084;2023-08-30T03:38:59;9.52;;;3.30;;
64282;SDS011;50497;50.720;-2.084;2023-08-30T03:41:25;9.60;;;3.63;;
64282;SDS011;50497;50.720;-2.084;2023-08-30T03:43:50;8.95;;;3.78;;
64282;SDS011;50497;50.720;-2.084;2023-08-30T03:46:16;9.32;;;3.70;;
64282;SDS011;50497;50.720;-2.084;2023-08-30T03:48:41;8.13;;;3.50;;
64282;SDS011;50497;50.720;-2.084;2023-08-30T03:51:06;8.45;;;3.47;;
64282;SDS011;50497;50.720;-2.084;2023-08-30T03:53:32;8.57;;;3.22;;
64282;SDS011;50497;50.720;-2.084;2023-08-30T03:55:57;8.15;;;3.40;;
64282;SDS011;50497;50.720;-2.084;2023-08-30T03:58:23;8.40;;;3.28;;
64282;SDS011;50497;50.720;-2.084;2023-08-30T04:00:48;7.15;;;3.20;;
64282;SDS011;50497;50.720;-2.084;2023-08-30T04:03:14;6.00;;;3.00;;
64282;SDS011;50497;50.720;-2.084;2023-08-30T04:05:40;6.90;;;2.90;;
64282;SDS011;50497;50.720;-2.084;2023-08-30T04:08:06;9.75;;;3.30;;
64282;SDS011;50497;50.720;-2.084;2023-08-30T04:13:01;5.18;;;2.92;;
64282;SDS011;50497;50.720;-2.084;2023-08-30T04:15:27;6.82;;;2.88;;
64282;SDS011;50497;50.720;-2.084;2023-08-30T04:17:52;8.77;;;3.08;;
64282;SDS011;50497;50.720;-2.084;2023-08-30T04:20:18;7.35;;;2.80;;
64282;SDS011;50497;50.720;-2.084;2023-08-30T04:22:43;6.07;;;3.13;;
64282;SDS011;50497;50.720;-2.084;2023-08-30T04:25:08;8.00;;;2.70;;
64282;SDS011;50497;50.720;-2.084;2023-08-30T04:27:34;8.63;;;3.20;;
64282;SDS011;50497;50.720;-2.084;2023-08-30T04:30:00;7.45;;;2.90;;
64282;SDS011;50497;50.720;-2.084;2023-08-30T04:32:25;7.65;;;3.35;;
64282;SDS011;50497;50.720;-2.084;2023-08-30T04:34:50;7.40;;;3.15;;
64282;SDS011;50497;50.720;-2.084;2023-08-30T04:37:16;4.95;;;2.35;;
64282;SDS011;50497;50.720;-2.084;2023-08-30T04:39:41;6.03;;;3.80;;
64282;SDS011;50497;50.720;-2.084;2023-08-30T04:42:06;4.80;;;2.80;;
64282;SDS011;50497;50.720;-2.084;2023-08-30T04:44:32;4.10;;;2.65;;
64282;SDS011;50497;50.720;-2.084;2023-08-30T04:46:57;6.25;;;2.10;;
64282;SDS011;50497;50.720;-2.084;2023-08-30T04:49:22;5.05;;;2.10;;
64282;SDS011;50497;50.720;-2.084;2023-08-30T04:51:50;3.95;;;1.90;;
64282;SDS011;50497;50.720;-2.084;2023-08-30T04:54:15;3.58;;;1.90;;
64282;SDS011;50497;50.720;-2.084;2023-08-30T04:56:41;3.65;;;1.98;;
64282;SDS011;50497;50.720;-2.084;2023-08-30T04:59:07;5.07;;;2.10;;
64282;SDS011;50497;50.720;-2.084;2023-08-30T05:01:32;8.27;;;3.80;;
64282;SDS011;50497;50.720;-2.084;2023-08-30T05:03:57;9.98;;;3.30;;
64282;SDS011;50497;50.720;-2.084;2023-08-30T05:06:23;5.97;;;2.78;;
64282;SDS011;50497;50.720;-2.084;2023-08-30T05:08:48;4.47;;;2.10;;
64282;SDS011;50497;50.720;-2.084;2023-08-30T05:11:13;4.47;;;2.28;;
64282;SDS011;50497;50.720;-2.084;2023-08-30T05:13:39;6.32;;;2.55;;
64282;SDS011;50497;50.720;-2.084;2023-08-30T05:16:04;4.57;;;1.98;;
64282;SDS011;50497;50.720;-2.084;2023-08-30T05:18:31;3.97;;;2.10;;
64282;SDS011;50497;50.720;-2.084;2023-08-30T05:21:08;7.65;;;2.80;;
64282;SDS011;50497;50.720;-2.084;2023-08-30T05:23:33;4.30;;;2.33;;
64282;SDS011;50497;50.720;-2.084;2023-08-30T05:25:59;4.63;;;3.00;;
64282;SDS011;50497;50.720;-2.084;2023-08-30T05:28:25;5.85;;;2.95;;
64282;SDS011;50497;50.720;-2.084;2023-08-30T05:30:51;5.35;;;2.42;;
64282;SDS011;50497;50.720;-2.084;2023-08-30T05:33:16;5.82;;;2.97;;
64282;SDS011;50497;50.720;-2.084;2023-08-30T05:35:41;6.10;;;3.38;;
64282;SDS011;50497;50.720;-2.084;2023-08-30T05:38:07;6.70;;;3.40;;
64282;SDS011;50497;50.720;-2.084;2023-08-30T05:40:32;5.72;;;2.97;;
64282;SDS011;50497;50.720;-2.084;2023-08-30T05:42:57;7.10;;;3.15;;
64282;SDS011;50497;50.720;-2.084;2023-08-30T05:45:23;5.90;;;2.75;;
64282;SDS011;50497;50.720;-2.084;2023-08-30T05:47:48;8.50;;;2.65;;
64282;SDS011;50497;50.720;-2.084;2023-08-30T05:50:13;5.97;;;2.67;;
64282;SDS011;50497;50.720;-2.084;2023-08-30T05:52:39;6.20;;;2.83;;
64282;SDS011;50497;50.720;-2.084;2023-08-30T05:55:09;6.32;;;5.43;;
64282;SDS011;50497;50.720;-2.084;2023-08-30T05:57:35;6.35;;;3.58;;
64282;SDS011;50497;50.720;-2.084;2023-08-30T06:00:01;3.95;;;2.58;;
64282;SDS011;50497;50.720;-2.084;2023-08-30T06:02:27;6.45;;;4.43;;
64282;SDS011;50497;50.720;-2.084;2023-08-30T06:04:52;5.15;;;3.15;;
64282;SDS011;50497;50.720;-2.084;2023-08-30T06:07:18;4.72;;;3.50;;
64282;SDS011;50497;50.720;-2.084;2023-08-30T06:09:43;5.10;;;4.07;;
64282;SDS011;50497;50.720;-2.084;2023-08-30T06:12:09;5.78;;;2.75;;
64282;SDS011;50497;50.720;-2.084;2023-08-30T06:14:34;7.72;;;2.53;;
64282;SDS011;50497;50.720;-2.084;2023-08-30T06:17:00;7.38;;;2.55;;
64282;SDS011;50497;50.720;-2.084;2023-08-30T06:19:25;6.07;;;2.67;;
64282;SDS011;50497;50.720;-2.084;2023-08-30T06:21:51;6.00;;;2.40;;
64282;SDS011;50497;50.720;-2.084;2023-08-30T06:24:16;5.63;;;3.00;;
64282;SDS011;50497;50.720;-2.084;2023-08-30T06:26:41;7.32;;;4.40;;
64282;SDS011;50497;50.720;-2.084;2023-08-30T06:29:07;5.78;;;2.83;;
64282;SDS011;50497;50.720;-2.084;2023-08-30T06:31:32;8.52;;;3.75;;
64282;SDS011;50497;50.720;-2.084;2023-08-30T06:33:57;7.82;;;2.60;;
64282;SDS011;50497;50.720;-2.084;2023-08-30T06:36:23;7.25;;;2.60;;
64282;SDS011;50497;50.720;-2.084;2023-08-30T06:38:48;8.07;;;2.70;;
64282;SDS011;50497;50.720;-2.084;2023-08-30T06:41:14;7.30;;;2.50;;
64282;SDS011;50497;50.720;-2.084;2023-08-30T06:43:39;7.40;;;2.90;;
64282;SDS011;50497;50.720;-2.084;2023-08-30T06:46:05;6.25;;;2.70;;
64282;SDS011;50497;50.720;-2.084;2023-08-30T06:48:30;8.52;;;3.17;;
64282;SDS011;50497;50.720;-2.084;2023-08-30T06:50:58;6.25;;;2.63;;
64282;SDS011;50497;50.720;-2.084;2023-08-30T06:53:24;6.30;;;2.53;;
64282;SDS011;50497;50.720;-2.084;2023-08-30T06:55:57;6.38;;;2.45;;
64282;SDS011;50497;50.720;-2.084;2023-08-30T06:58:26;6.60;;;2.40;;
64282;SDS011;50497;50.720;-2.084;2023-08-30T07:00:52;4.07;;;2.08;;
64282;SDS011;50497;50.720;-2.084;2023-08-30T07:03:17;6.10;;;2.30;;
64282;SDS011;50497;50.720;-2.084;2023-08-30T07:05:43;4.07;;;1.77;;
64282;SDS011;50497;50.720;-2.084;2023-08-30T07:08:09;5.38;;;2.22;;
64282;SDS011;50497;50.720;-2.084;2023-08-30T07:10:34;6.07;;;2.20;;
64282;SDS011;50497;50.720;-2.084;2023-08-30T07:13:00;6.85;;;2.40;;
64282;SDS011;50497;50.720;-2.084;2023-08-30T07:15:25;6.88;;;2.40;;
64282;SDS011;50497;50.720;-2.084;2023-08-30T07:17:51;6.72;;;2.50;;
64282;SDS011;50497;50.720;-2.084;2023-08-30T07:20:16;6.85;;;2.60;;
64282;SDS011;50497;50.720;-2.084;2023-08-30T07:22:42;7.32;;;2.25;;
64282;SDS011;50497;50.720;-2.084;2023-08-30T07:25:07;5.75;;;2.10;;
64282;SDS011;50497;50.720;-2.084;2023-08-30T07:27:35;6.88;;;3.25;;
64282;SDS011;50497;50.720;-2.084;2023-08-30T07:30:00;7.10;;;2.17;;
64282;SDS011;50497;50.720;-2.084;2023-08-30T07:32:26;8.45;;;2.15;;
64282;SDS011;50497;50.720;-2.084;2023-08-30T07:34:52;6.05;;;2.13;;
64282;SDS011;50497;50.720;-2.084;2023-08-30T07:37:20;6.70;;;1.98;;
64282;SDS011;50497;50.720;-2.084;2023-08-30T07:39:46;6.03;;;2.10;;
64282;SDS011;50497;50.720;-2.084;2023-08-30T07:42:12;7.63;;;2.58;;
64282;SDS011;50497;50.720;-2.084;2023-08-30T07:44:39;6.93;;;2.05;;
64282;SDS011;50497;50.720;-2.084;2023-08-30T07:47:04;6.40;;;2.22;;
64282;SDS011;50497;50.720;-2.084;2023-08-30T07:49:29;5.13;;;1.80;;
64282;SDS011;50497;50.720;-2.084;2023-08-30T07:51:55;4.63;;;1.70;;
64282;SDS011;50497;50.720;-2.084;2023-08-30T07:54:20;5.38;;;1.60;;
64282;SDS011;50497;50.720;-2.084;2023-08-30T07:56:45;6.88;;;1.77;;
64282;SDS011;50497;50.720;-2.084;2023-08-30T07:59:12;5.18;;;1.85;;
64282;SDS011;50497;50.720;-2.084;2023-08-30T08:01:38;5.13;;;1.60;;
64282;SDS011;50497;50.720;-2.084;2023-08-30T08:04:03;5.30;;;1.50;;
64282;SDS011;50497;50.720;-2.084;2023-08-30T08:06:28;5.00;;;1.70;;
64282;SDS011;50497;50.720;-2.084;2023-08-30T08:08:54;5.35;;;1.67;;
64282;SDS011;50497;50.720;-2.084;2023-08-30T08:11:19;4.10;;;1.60;;
64282;SDS011;50497;50.720;-2.084;2023-08-30T08:13:44;4.85;;;1.73;;
64282;SDS011;50497;50.720;-2.084;2023-08-30T08:16:10;4.15;;;1.55;;
64282;SDS011;50497;50.720;-2.084;2023-08-30T08:18:36;4.53;;;1.85;;
64282;SDS011;50497;50.720;-2.084;2023-08-30T08:21:01;4.95;;;1.70;;
64282;SDS011;50497;50.720;-2.084;2023-08-30T08:23:26;4.45;;;1.40;;
64282;SDS011;50497;50.720;-2.084;2023-08-30T08:25:58;3.63;;;1.77;;
64282;SDS011;50497;50.720;-2.084;2023-08-30T08:28:24;2.90;;;1.85;;
64282;SDS011;50497;50.720;-2.084;2023-08-30T08:33:16;2.05;;;1.73;;
64282;SDS011;50497;50.720;-2.084;2023-08-30T08:35:42;0.43;;;0.32;;
64282;SDS011;50497;50.720;-2.084;2023-08-30T08:40:36;3.83;;;1.90;;
64282;SDS011;50497;50.720;-2.084;2023-08-30T08:43:03;1.00;;;0.88;;
64282;SDS011;50497;50.720;-2.084;2023-08-30T08:45:29;0.75;;;0.65;;
64282;SDS011;50497;50.720;-2.084;2023-08-30T08:47:59;1.85;;;0.90;;
64282;SDS011;50497;50.720;-2.084;2023-08-30T08:50:26;0.75;;;0.50;;
64282;SDS011;50497;50.720;-2.084;2023-08-30T08:52:53;1.13;;;0.90;;
64282;SDS011;50497;50.720;-2.084;2023-08-30T08:57:44;1.95;;;0.90;;
64282;SDS011;50497;50.720;-2.084;2023-08-30T09:00:12;1.35;;;0.88;;
64282;SDS011;50497;50.720;-2.084;2023-08-30T09:02:38;0.63;;;0.63;;
64282;SDS011;50497;50.720;-2.084;2023-08-30T09:05:04;0.98;;;0.70;;
64282;SDS011;50497;50.720;-2.084;2023-08-30T09:07:30;1.08;;;0.70;;
64282;SDS011;50497;50.720;-2.084;2023-08-30T09:09:56;0.82;;;0.82;;
64282;SDS011;50497;50.720;-2.084;2023-08-30T09:12:21;1.13;;;0.60;;
64282;SDS011;50497;50.720;-2.084;2023-08-30T09:14:54;0.50;;;0.50;;
64282;SDS011;50497;50.720;-2.084;2023-08-30T09:17:20;0.85;;;0.57;;
64282;SDS011;50497;50.720;-2.084;2023-08-30T09:19:46;0.10;;;0.10;;
64282;SDS011;50497;50.720;-2.084;2023-08-30T09:22:11;0.10;;;0.10;;
64282;SDS011;50497;50.720;-2.084;2023-08-30T09:24:37;0.15;;;0.10;;
64282;SDS011;50497;50.720;-2.084;2023-08-30T09:27:04;0.80;;;0.32;;
64282;SDS011;50497;50.720;-2.084;2023-08-30T09:31:55;0.00;;;0.00;;
64282;SDS011;50497;50.720;-2.084;2023-08-30T09:36:50;0.00;;;0.00;;
64282;SDS011;50497;50.720;-2.084;2023-08-30T09:39:16;0.00;;;0.00;;
64282;SDS011;50497;50.720;-2.084;2023-08-30T09:44:12;0.00;;;0.00;;
64282;SDS011;50497;50.720;-2.084;2023-08-30T09:46:51;0.10;;;0.10;;
64282;SDS011;50497;50.720;-2.084;2023-08-30T09:49:23;0.00;;;0.00;;
64282;SDS011;50497;50.720;-2.084;2023-08-30T09:51:50;0.00;;;0.00;;
64282;SDS011;50497;50.720;-2.084;2023-08-30T09:54:18;0.00;;;0.00;;
64282;SDS011;50497;50.720;-2.084;2023-08-30T09:56:44;0.00;;;0.00;;
64282;SDS011;50497;50.720;-2.084;2023-08-30T09:59:11;0.00;;;0.00;;
64282;SDS011;50497;50.720;-2.084;2023-08-30T10:01:39;0.00;;;0.00;;
64282;SDS011;50497;50.720;-2.084;2023-08-30T10:04:09;0.00;;;0.00;;
64282;SDS011;50497;50.720;-2.084;2023-08-30T10:06:38;0.00;;;0.00;;
64282;SDS011;50497;50.720;-2.084;2023-08-30T10:09:05;0.00;;;0.00;;
64282;SDS011;50497;50.720;-2.084;2023-08-30T10:11:33;0.00;;;0.00;;
64282;SDS011;50497;50.720;-2.084;2023-08-30T10:14:03;0.10;;;0.10;;
64282;SDS011;50497;50.720;-2.084;2023-08-30T10:16:30;0.00;;;0.00;;
64282;SDS011;50497;50.720;-2.084;2023-08-30T10:19:03;0.00;;;0.00;;
64282;SDS011;50497;50.720;-2.084;2023-08-30T10:21:33;0.00;;;0.00;;
64282;SDS011;50497;50.720;-2.084;2023-08-30T10:24:01;0.00;;;0.00;;
64282;SDS011;50497;50.720;-2.084;2023-08-30T10:26:28;0.10;;;0.10;;
64282;SDS011;50497;50.720;-2.084;2023-08-30T10:28:57;0.00;;;0.00;;
64282;SDS011;50497;50.720;-2.084;2023-08-30T10:31:24;0.20;;;0.20;;
64282;SDS011;50497;50.720;-2.084;2023-08-30T10:33:55;0.00;;;0.00;;
64282;SDS011;50497;50.720;-2.084;2023-08-30T10:36:24;0.10;;;0.10;;
64282;SDS011;50497;50.720;-2.084;2023-08-30T10:38:52;0.00;;;0.00;;
64282;SDS011;50497;50.720;-2.084;2023-08-30T10:41:22;0.00;;;0.00;;
64282;SDS011;50497;50.720;-2.084;2023-08-30T10:43:49;0.00;;;0.00;;
64282;SDS011;50497;50.720;-2.084;2023-08-30T10:46:29;0.00;;;0.00;;
64282;SDS011;50497;50.720;-2.084;2023-08-30T10:49:11;0.00;;;0.00;;
64282;SDS011;50497;50.720;-2.084;2023-08-30T10:51:40;0.00;;;0.00;;
64282;SDS011;50497;50.720;-2.084;2023-08-30T10:54:15;0.00;;;0.00;;
64282;SDS011;50497;50.720;-2.084;2023-08-30T10:56:48;0.00;;;0.00;;
64282;SDS011;50497;50.720;-2.084;2023-08-30T10:59:19;0.00;;;0.00;;
64282;SDS011;50497;50.720;-2.084;2023-08-30T11:01:45;0.00;;;0.00;;
64282;SDS011;50497;50.720;-2.084;2023-08-30T11:04:12;0.00;;;0.00;;
64282;SDS011;50497;50.720;-2.084;2023-08-30T11:06:39;0.00;;;0.00;;
64282;SDS011;50497;50.720;-2.084;2023-08-30T11:09:05;0.00;;;0.00;;
64282;SDS011;50497;50.720;-2.084;2023-08-30T11:11:32;0.00;;;0.00;;
64282;SDS011;50497;50.720;-2.084;2023-08-30T11:14:06;0.00;;;0.00;;
64282;SDS011;50497;50.720;-2.084;2023-08-30T11:16:33;0.00;;;0.00;;
64282;SDS011;50497;50.720;-2.084;2023-08-30T11:19:00;0.00;;;0.00;;
64282;SDS011;50497;50.720;-2.084;2023-08-30T11:21:28;0.00;;;0.00;;
64282;SDS011;50497;50.720;-2.084;2023-08-30T11:23:57;0.00;;;0.00;;
64282;SDS011;50497;50.720;-2.084;2023-08-30T11:28:48;0.00;;;0.00;;
64282;SDS011;50497;50.720;-2.084;2023-08-30T11:31:20;0.00;;;0.00;;
64282;SDS011;50497;50.720;-2.084;2023-08-30T11:33:57;0.00;;;0.00;;
64282;SDS011;50497;50.720;-2.084;2023-08-30T11:36:24;0.00;;;0.00;;
64282;SDS011;50497;50.720;-2.084;2023-08-30T11:38:52;0.00;;;0.00;;
64282;SDS011;50497;50.720;-2.084;2023-08-30T11:41:21;0.00;;;0.00;;
64282;SDS011;50497;50.720;-2.084;2023-08-30T11:43:47;0.00;;;0.00;;
64282;SDS011;50497;50.720;-2.084;2023-08-30T11:46:13;0.00;;;0.00;;
64282;SDS011;50497;50.720;-2.084;2023-08-30T11:48:42;0.00;;;0.00;;
64282;SDS011;50497;50.720;-2.084;2023-08-30T11:51:08;0.00;;;0.00;;
64282;SDS011;50497;50.720;-2.084;2023-08-30T11:53:34;0.00;;;0.00;;
64282;SDS011;50497;50.720;-2.084;2023-08-30T11:58:26;0.00;;;0.00;;
64282;SDS011;50497;50.720;-2.084;2023-08-30T12:03:19;0.00;;;0.00;;
64282;SDS011;50497;50.720;-2.084;2023-08-30T12:05:48;0.00;;;0.00;;
64282;SDS011;50497;50.720;-2.084;2023-08-30T12:08:21;0.00;;;0.00;;
64282;SDS011;50497;50.720;-2.084;2023-08-30T12:10:51;0.03;;;0.03;;
64282;SDS011;50497;50.720;-2.084;2023-08-30T12:15:52;0.10;;;0.10;;
64282;SDS011;50497;50.720;-2.084;2023-08-30T12:20:55;0.00;;;0.00;;
64282;SDS011;50497;50.720;-2.084;2023-08-30T12:23:26;0.00;;;0.00;;
64282;SDS011;50497;50.720;-2.084;2023-08-30T12:25:59;0.00;;;0.00;;
64282;SDS011;50497;50.720;-2.084;2023-08-30T12:28:28;0.00;;;0.00;;
64282;SDS011;50497;50.720;-2.084;2023-08-30T12:30:54;0.00;;;0.00;;
64282;SDS011;50497;50.720;-2.084;2023-08-30T12:33:20;0.00;;;0.00;;
64282;SDS011;50497;50.720;-2.084;2023-08-30T12:35:45;0.00;;;0.00;;
64282;SDS011;50497;50.720;-2.084;2023-08-30T12:38:10;0.00;;;0.00;;
64282;SDS011;50497;50.720;-2.084;2023-08-30T12:40:46;0.00;;;0.00;;
64282;SDS011;50497;50.720;-2.084;2023-08-30T12:43:12;0.00;;;0.00;;
64282;SDS011;50497;50.720;-2.084;2023-08-30T12:45:39;0.00;;;0.00;;
64282;SDS011;50497;50.720;-2.084;2023-08-30T12:48:05;0.00;;;0.00;;
64282;SDS011;50497;50.720;-2.084;2023-08-30T12:50:31;0.10;;;0.10;;
64282;SDS011;50497;50.720;-2.084;2023-08-30T12:52:57;0.10;;;0.10;;
64282;SDS011;50497;50.720;-2.084;2023-08-30T12:55:22;0.00;;;0.00;;
64282;SDS011;50497;50.720;-2.084;2023-08-30T12:57:47;0.00;;;0.00;;
64282;SDS011;50497;50.720;-2.084;2023-08-30T13:00:13;0.00;;;0.00;;
64282;SDS011;50497;50.720;-2.084;2023-08-30T13:02:39;0.05;;;0.05;;
64282;SDS011;50497;50.720;-2.084;2023-08-30T13:05:05;0.10;;;0.10;;
64282;SDS011;50497;50.720;-2.084;2023-08-30T13:07:30;0.00;;;0.00;;
64282;SDS011;50497;50.720;-2.084;2023-08-30T13:09:56;0.00;;;0.00;;
64282;SDS011;50497;50.720;-2.084;2023-08-30T13:12:21;0.00;;;0.00;;
64282;SDS011;50497;50.720;-2.084;2023-08-30T13:14:46;0.10;;;0.00;;
64282;SDS011;50497;50.720;-2.084;2023-08-30T13:17:12;0.00;;;0.00;;
64282;SDS011;50497;50.720;-2.084;2023-08-30T13:19:37;0.00;;;0.00;;
64282;SDS011;50497;50.720;-2.084;2023-08-30T13:22:03;0.20;;;0.00;;
64282;SDS011;50497;50.720;-2.084;2023-08-30T13:24:28;0.00;;;0.00;;
64282;SDS011;50497;50.720;-2.084;2023-08-30T13:26:55;0.00;;;0.00;;
64282;SDS011;50497;50.720;-2.084;2023-08-30T13:29:20;0.00;;;0.00;;
64282;SDS011;50497;50.720;-2.084;2023-08-30T13:31:46;0.00;;;0.00;;
64282;SDS011;50497;50.720;-2.084;2023-08-30T13:36:36;0.00;;;0.00;;
64282;SDS011;50497;50.720;-2.084;2023-08-30T13:39:04;0.00;;;0.00;;
64282;SDS011;50497;50.720;-2.084;2023-08-30T13:43:54;0.00;;;0.00;;
64282;SDS011;50497;50.720;-2.084;2023-08-30T13:48:45;0.00;;;0.00;;
64282;SDS011;50497;50.720;-2.084;2023-08-30T13:51:12;0.00;;;0.00;;
64282;SDS011;50497;50.720;-2.084;2023-08-30T13:56:03;0.10;;;0.10;;
64282;SDS011;50497;50.720;-2.084;2023-08-30T14:00:53;0.00;;;0.00;;
64282;SDS011;50497;50.720;-2.084;2023-08-30T14:03:19;0.00;;;0.00;;
64282;SDS011;50497;50.720;-2.084;2023-08-30T14:05:45;0.00;;;0.00;;
64282;SDS011;50497;50.720;-2.084;2023-08-30T14:08:10;0.00;;;0.00;;
64282;SDS011;50497;50.720;-2.084;2023-08-30T14:10:36;0.00;;;0.00;;
64282;SDS011;50497;50.720;-2.084;2023-08-30T14:13:02;0.00;;;0.00;;
64282;SDS011;50497;50.720;-2.084;2023-08-30T14:15:27;0.00;;;0.00;;
64282;SDS011;50497;50.720;-2.084;2023-08-30T14:17:52;0.00;;;0.00;;
64282;SDS011;50497;50.720;-2.084;2023-08-30T14:20:18;0.00;;;0.00;;
64282;SDS011;50497;50.720;-2.084;2023-08-30T14:22:43;0.00;;;0.00;;
64282;SDS011;50497;50.720;-2.084;2023-08-30T14:25:08;0.00;;;0.00;;
64282;SDS011;50497;50.720;-2.084;2023-08-30T14:27:34;0.00;;;0.00;;
64282;SDS011;50497;50.720;-2.084;2023-08-30T14:30:00;0.00;;;0.00;;
64282;SDS011;50497;50.720;-2.084;2023-08-30T14:32:25;0.00;;;0.00;;
64282;SDS011;50497;50.720;-2.084;2023-08-30T14:34:51;0.00;;;0.00;;
64282;SDS011;50497;50.720;-2.084;2023-08-30T14:37:16;0.00;;;0.00;;
64282;SDS011;50497;50.720;-2.084;2023-08-30T14:39:41;0.00;;;0.00;;
64282;SDS011;50497;50.720;-2.084;2023-08-30T14:42:06;0.00;;;0.00;;
64282;SDS011;50497;50.720;-2.084;2023-08-30T14:44:32;0.10;;;0.00;;
64282;SDS011;50497;50.720;-2.084;2023-08-30T14:46:57;0.00;;;0.00;;
64282;SDS011;50497;50.720;-2.084;2023-08-30T14:49:23;0.00;;;0.00;;
64282;SDS011;50497;50.720;-2.084;2023-08-30T14:54:13;0.10;;;0.10;;
64282;SDS011;50497;50.720;-2.084;2023-08-30T14:56:38;0.00;;;0.00;;
64282;SDS011;50497;50.720;-2.084;2023-08-30T14:59:04;0.00;;;0.00;;
64282;SDS011;50497;50.720;-2.084;2023-08-30T15:01:29;0.00;;;0.00;;
64282;SDS011;50497;50.720;-2.084;2023-08-30T15:03:55;0.00;;;0.00;;
64282;SDS011;50497;50.720;-2.084;2023-08-30T15:06:20;0.00;;;0.00;;
64282;SDS011;50497;50.720;-2.084;2023-08-30T15:08:46;0.03;;;0.03;;
64282;SDS011;50497;50.720;-2.084;2023-08-30T15:11:13;0.00;;;0.00;;
64282;SDS011;50497;50.720;-2.084;2023-08-30T15:13:38;0.00;;;0.00;;
64282;SDS011;50497;50.720;-2.084;2023-08-30T15:16:04;0.00;;;0.00;;
64282;SDS011;50497;50.720;-2.084;2023-08-30T15:18:29;0.00;;;0.00;;